createdAt,value
2023-01-10T00:00:03.976Z,1003.17
2023-01-10T00:01:03.859Z,1003.22
2023-01-10T00:02:03.827Z,1003.21
2023-01-10T00:03:03.880Z,1003.18
2023-01-10T00:04:03.809Z,1003.21
2023-01-10T00:05:03.807Z,1003.26
2023-01-10T00:06:03.784Z,1003.33
2023-01-10T00:07:03.783Z,1003.37
2023-01-10T00:08:03.751Z,1003.41
2023-01-10T00:09:03.765Z,1003.41
2023-01-10T00:10:03.750Z,1003.45
2023-01-10T00:11:03.728Z,1003.56
2023-01-10T00:12:03.712Z,1003.56
2023-01-10T00:13:03.708Z,1003.63
2023-01-10T00:14:03.704Z,1003.61
2023-01-10T00:15:03.686Z,1003.67
2023-01-10T00:16:03.727Z,1003.63
2023-01-10T00:17:03.733Z,1003.75
2023-01-10T00:18:03.664Z,1003.74
2023-01-10T00:19:03.639Z,1003.75
2023-01-10T00:20:03.640Z,1003.76
2023-01-10T00:21:03.636Z,1003.76
2023-01-10T00:22:03.616Z,1003.76
2023-01-10T00:23:03.612Z,1003.82
2023-01-10T00:24:03.588Z,1003.84
2023-01-10T00:25:03.570Z,1003.86
2023-01-10T00:26:03.572Z,1003.85
2023-01-10T00:27:03.563Z,1003.85
2023-01-10T00:28:03.566Z,1003.86
2023-01-10T00:29:03.535Z,1003.87
2023-01-10T00:30:03.519Z,1003.92
2023-01-10T00:31:03.549Z,1003.91
2023-01-10T00:32:03.507Z,1003.93
2023-01-10T00:33:03.534Z,1003.90
2023-01-10T00:34:03.486Z,1003.93
2023-01-10T00:35:03.471Z,1003.89
2023-01-10T00:36:03.463Z,1004.01
2023-01-10T00:37:03.446Z,1003.99
2023-01-10T00:38:03.442Z,1003.95
2023-01-10T00:39:03.440Z,1004.02
2023-01-10T00:40:03.428Z,1004.00
2023-01-10T00:41:03.403Z,1004.03
2023-01-10T00:42:03.405Z,1004.02
2023-01-10T00:43:03.383Z,1004.00
2023-01-10T00:44:03.375Z,1004.01
2023-01-10T00:45:03.367Z,1004.00
2023-01-10T00:46:03.417Z,1004.09
2023-01-10T00:47:03.371Z,1004.01
2023-01-10T00:48:03.331Z,1004.09
2023-01-10T00:49:03.342Z,1004.12
2023-01-10T00:50:03.311Z,1004.13
2023-01-10T00:51:03.303Z,1004.10
2023-01-10T00:52:03.292Z,1004.16
2023-01-10T00:53:03.269Z,1004.12
2023-01-10T00:54:03.270Z,1004.16
2023-01-10T00:55:03.282Z,1004.23
2023-01-10T00:56:03.257Z,1004.19
2023-01-10T00:57:03.239Z,1004.15
2023-01-10T00:58:03.228Z,1004.20
2023-01-10T00:59:03.219Z,1004.28
2023-01-10T01:00:03.209Z,1004.25
2023-01-10T01:01:03.222Z,1004.22
2023-01-10T01:02:03.249Z,1004.26
2023-01-10T01:03:03.279Z,1004.27
2023-01-10T01:04:03.153Z,1004.20
2023-01-10T01:05:03.179Z,1004.25
2023-01-10T01:06:03.151Z,1004.30
2023-01-10T01:07:03.136Z,1004.31
2023-01-10T01:08:03.120Z,1004.30
2023-01-10T01:09:03.110Z,1004.32
2023-01-10T01:10:03.101Z,1004.36
2023-01-10T01:11:03.100Z,1004.40
2023-01-10T01:12:03.101Z,1004.38
2023-01-10T01:13:03.071Z,1004.35
2023-01-10T01:14:03.060Z,1004.42
2023-01-10T01:15:03.056Z,1004.45
2023-01-10T01:16:03.100Z,1004.54
2023-01-10T01:17:03.033Z,1004.52
2023-01-10T01:18:03.016Z,1004.55
2023-01-10T01:19:03.002Z,1004.58
2023-01-10T01:20:02.999Z,1004.69
2023-01-10T01:21:02.993Z,1004.63
2023-01-10T01:22:02.967Z,1004.64
2023-01-10T01:23:02.979Z,1004.62
2023-01-10T01:24:02.962Z,1004.72
2023-01-10T01:25:02.938Z,1004.74
2023-01-10T01:26:02.936Z,1004.79
2023-01-10T01:27:02.913Z,1004.81
2023-01-10T01:28:02.912Z,1004.83
2023-01-10T01:29:02.907Z,1004.80
2023-01-10T01:30:02.884Z,1004.84
2023-01-10T01:31:02.916Z,1004.87
2023-01-10T01:32:02.855Z,1004.82
2023-01-10T01:33:02.866Z,1004.93
2023-01-10T01:34:02.842Z,1004.89
2023-01-10T01:35:02.829Z,1004.95
2023-01-10T01:36:02.812Z,1004.97
2023-01-10T01:37:02.820Z,1004.97
2023-01-10T01:38:02.801Z,1004.92
2023-01-10T01:39:02.795Z,1004.96
2023-01-10T01:40:02.781Z,1004.97
2023-01-10T01:41:02.779Z,1004.95
2023-01-10T01:42:02.757Z,1004.95
2023-01-10T01:43:02.745Z,1005.00
2023-01-10T01:44:02.728Z,1004.97
2023-01-10T01:45:02.718Z,1004.96
2023-01-10T01:46:02.764Z,1005.01
2023-01-10T01:47:02.717Z,1005.02
2023-01-10T01:48:02.696Z,1005.04
2023-01-10T01:49:02.698Z,1005.05
2023-01-10T01:50:02.673Z,1005.02
2023-01-10T01:51:02.677Z,1005.08
2023-01-10T01:52:02.647Z,1005.03
2023-01-10T01:53:02.654Z,1005.06
2023-01-10T01:54:02.632Z,1005.02
2023-01-10T01:55:02.634Z,1005.03
2023-01-10T01:56:02.606Z,1005.04
2023-01-10T01:57:02.611Z,1005.11
2023-01-10T01:58:02.585Z,1005.11
2023-01-10T01:59:02.583Z,1005.11
2023-01-10T02:00:02.568Z,1005.06
2023-01-10T02:01:02.623Z,1005.11
2023-01-10T02:02:02.626Z,1005.10
2023-01-10T02:03:03.506Z,1005.02
2023-01-10T02:04:02.561Z,1005.08
2023-01-10T02:05:02.508Z,1005.06
2023-01-10T02:06:02.520Z,1005.09
2023-01-10T02:07:02.493Z,1005.18
2023-01-10T02:08:02.497Z,1005.21
2023-01-10T02:09:02.504Z,1005.16
2023-01-10T02:10:02.461Z,1005.18
2023-01-10T02:11:02.457Z,1005.13
2023-01-10T02:12:02.428Z,1005.19
2023-01-10T02:13:02.434Z,1005.29
2023-01-10T02:14:02.427Z,1005.21
2023-01-10T02:15:02.414Z,1005.30
2023-01-10T02:16:02.439Z,1005.28
2023-01-10T02:17:02.403Z,1005.33
2023-01-10T02:18:02.380Z,1005.39
2023-01-10T02:19:02.357Z,1005.35
2023-01-10T02:20:02.357Z,1005.33
2023-01-10T02:21:02.337Z,1005.36
2023-01-10T02:22:02.339Z,1005.40
2023-01-10T02:23:02.323Z,1005.32
2023-01-10T02:24:02.319Z,1005.32
2023-01-10T02:25:02.329Z,1005.39
2023-01-10T02:26:02.293Z,1005.36
2023-01-10T02:27:02.287Z,1005.40
2023-01-10T02:28:02.277Z,1005.44
2023-01-10T02:29:02.265Z,1005.32
2023-01-10T02:30:02.247Z,1005.39
2023-01-10T02:31:02.277Z,1005.39
2023-01-10T02:32:02.228Z,1005.43
2023-01-10T02:33:05.578Z,1005.38
2023-01-10T02:34:02.213Z,1005.44
2023-01-10T02:35:02.230Z,1005.45
2023-01-10T02:36:02.179Z,1005.45
2023-01-10T02:37:02.170Z,1005.49
2023-01-10T02:38:02.154Z,1005.46
2023-01-10T02:39:02.149Z,1005.57
2023-01-10T02:40:02.134Z,1005.48
2023-01-10T02:41:02.164Z,1005.51
2023-01-10T02:42:02.117Z,1005.54
2023-01-10T02:43:02.112Z,1005.55
2023-01-10T02:44:02.101Z,1005.54
2023-01-10T02:45:02.084Z,1005.60
2023-01-10T02:46:02.080Z,1005.57
2023-01-10T02:47:02.067Z,1005.61
2023-01-10T02:48:02.079Z,1005.63
2023-01-10T02:49:02.045Z,1005.65
2023-01-10T02:50:02.037Z,1005.68
2023-01-10T02:51:02.022Z,1005.61
2023-01-10T02:52:02.012Z,1005.60
2023-01-10T02:53:02.010Z,1005.62
2023-01-10T02:54:01.991Z,1005.61
2023-01-10T02:55:01.982Z,1005.74
2023-01-10T02:56:01.975Z,1005.74
2023-01-10T02:57:01.993Z,1005.73
2023-01-10T02:58:01.955Z,1005.80
2023-01-10T02:59:01.964Z,1005.79
2023-01-10T03:00:01.925Z,1005.83
2023-01-10T03:01:01.999Z,1005.88
2023-01-10T03:02:01.919Z,1005.82
2023-01-10T03:03:01.899Z,1005.84
2023-01-10T03:04:01.900Z,1005.78
2023-01-10T03:05:01.888Z,1005.85
2023-01-10T03:06:01.867Z,1005.87
2023-01-10T03:07:01.850Z,1005.89
2023-01-10T03:08:01.843Z,1006.09
2023-01-10T03:09:01.832Z,1005.99
2023-01-10T03:10:01.836Z,1006.04
2023-01-10T03:11:01.833Z,1006.09
2023-01-10T03:12:01.805Z,1006.06
2023-01-10T03:13:01.808Z,1006.06
2023-01-10T03:14:01.782Z,1006.06
2023-01-10T03:15:01.786Z,1006.11
2023-01-10T03:16:01.806Z,1006.19
2023-01-10T03:17:02.889Z,1006.25
2023-01-10T03:18:01.740Z,1006.22
2023-01-10T03:19:01.753Z,1006.25
2023-01-10T03:20:01.732Z,1006.29
2023-01-10T03:21:01.705Z,1006.27
2023-01-10T03:22:01.702Z,1006.28
2023-01-10T03:23:01.689Z,1006.33
2023-01-10T03:24:01.676Z,1006.27
2023-01-10T03:25:01.677Z,1006.33
2023-01-10T03:26:01.657Z,1006.35
2023-01-10T03:27:02.047Z,1006.40
2023-01-10T03:28:01.637Z,1006.43
2023-01-10T03:29:01.662Z,1006.50
2023-01-10T03:30:01.612Z,1006.49
2023-01-10T03:31:01.672Z,1006.35
2023-01-10T03:32:01.592Z,1006.52
2023-01-10T03:33:01.583Z,1006.54
2023-01-10T03:34:01.584Z,1006.45
2023-01-10T03:35:01.593Z,1006.48
2023-01-10T03:36:01.549Z,1006.49
2023-01-10T03:37:01.535Z,1006.47
2023-01-10T03:38:01.522Z,1006.54
2023-01-10T03:39:01.515Z,1006.54
2023-01-10T03:40:01.505Z,1006.66
2023-01-10T03:41:01.552Z,1006.57
2023-01-10T03:42:01.487Z,1006.61
2023-01-10T03:43:01.472Z,1006.62
2023-01-10T03:44:01.461Z,1006.66
2023-01-10T03:45:01.482Z,1006.65
2023-01-10T03:46:01.468Z,1006.71
2023-01-10T03:47:01.451Z,1006.69
2023-01-10T03:48:01.428Z,1006.74
2023-01-10T03:49:01.408Z,1006.71
2023-01-10T03:50:01.398Z,1006.79
2023-01-10T03:51:01.386Z,1006.79
2023-01-10T03:52:01.391Z,1006.91
2023-01-10T03:53:01.377Z,1006.91
2023-01-10T03:54:01.383Z,1006.89
2023-01-10T03:55:01.342Z,1006.94
2023-01-10T03:56:01.334Z,1006.98
2023-01-10T03:57:02.761Z,1007.03
2023-01-10T03:58:01.327Z,1007.04
2023-01-10T03:59:01.316Z,1007.06
2023-01-10T04:00:01.308Z,1007.01
2023-01-10T04:01:01.397Z,1007.07
2023-01-10T04:02:01.435Z,1007.11
2023-01-10T04:03:01.279Z,1007.15
2023-01-10T04:04:01.264Z,1007.06
2023-01-10T04:05:01.266Z,1007.11
2023-01-10T04:06:01.239Z,1007.19
2023-01-10T04:07:01.228Z,1007.18
2023-01-10T04:08:01.203Z,1007.21
2023-01-10T04:09:01.206Z,1007.21
2023-01-10T04:10:01.187Z,1007.26
2023-01-10T04:11:01.183Z,1007.27
2023-01-10T04:12:01.179Z,1007.33
2023-01-10T04:13:01.161Z,1007.31
2023-01-10T04:14:01.151Z,1007.36
2023-01-10T04:15:01.152Z,1007.41
2023-01-10T04:16:01.143Z,1007.40
2023-01-10T04:17:01.145Z,1007.44
2023-01-10T04:18:01.106Z,1007.49
2023-01-10T04:19:01.101Z,1007.51
2023-01-10T04:20:01.090Z,1007.54
2023-01-10T04:21:01.086Z,1007.57
2023-01-10T04:22:01.070Z,1007.55
2023-01-10T04:23:01.049Z,1007.60
2023-01-10T04:24:01.042Z,1007.56
2023-01-10T04:25:01.036Z,1007.65
2023-01-10T04:26:01.055Z,1007.60
2023-01-10T04:27:01.015Z,1007.62
2023-01-10T04:28:00.997Z,1007.62
2023-01-10T04:29:01.000Z,1007.71
2023-01-10T04:30:00.997Z,1007.68
2023-01-10T04:31:00.979Z,1007.72
2023-01-10T04:32:01.029Z,1007.78
2023-01-10T04:33:00.964Z,1007.81
2023-01-10T04:34:00.933Z,1007.87
2023-01-10T04:35:00.937Z,1007.84
2023-01-10T04:36:00.927Z,1007.75
2023-01-10T04:37:00.907Z,1007.86
2023-01-10T04:38:00.901Z,1007.88
2023-01-10T04:39:00.880Z,1007.95
2023-01-10T04:40:00.868Z,1007.93
2023-01-10T04:41:00.925Z,1007.88
2023-01-10T04:42:00.860Z,1007.97
2023-01-10T04:43:00.860Z,1007.95
2023-01-10T04:44:00.854Z,1008.00
2023-01-10T04:45:00.815Z,1008.03
2023-01-10T04:46:00.842Z,1008.00
2023-01-10T04:47:00.816Z,1008.03
2023-01-10T04:48:00.798Z,1008.08
2023-01-10T04:49:00.808Z,1008.10
2023-01-10T04:50:00.773Z,1008.13
2023-01-10T04:51:00.766Z,1008.11
2023-01-10T04:52:00.755Z,1008.16
2023-01-10T04:53:00.742Z,1008.16
2023-01-10T04:54:00.753Z,1008.18
2023-01-10T04:55:00.729Z,1008.21
2023-01-10T04:56:00.706Z,1008.17
2023-01-10T04:57:00.724Z,1008.20
2023-01-10T04:58:00.703Z,1008.30
2023-01-10T04:59:00.673Z,1008.30
2023-01-10T05:00:00.684Z,1008.34
2023-01-10T05:01:00.711Z,1008.35
2023-01-10T05:02:00.800Z,1008.38
2023-01-10T05:03:00.769Z,1008.40
2023-01-10T05:04:00.625Z,1008.36
2023-01-10T05:05:00.646Z,1008.49
2023-01-10T05:06:00.608Z,1008.44
2023-01-10T05:07:00.591Z,1008.46
2023-01-10T05:08:00.580Z,1008.52
2023-01-10T05:09:00.561Z,1008.53
2023-01-10T05:10:00.587Z,1008.59
2023-01-10T05:11:00.541Z,1008.56
2023-01-10T05:12:00.538Z,1008.56
2023-01-10T05:13:00.550Z,1008.58
2023-01-10T05:14:00.515Z,1008.59
2023-01-10T05:15:00.517Z,1008.57
2023-01-10T05:16:00.511Z,1008.61
2023-01-10T05:17:00.484Z,1008.67
2023-01-10T05:18:00.499Z,1008.70
2023-01-10T05:19:00.466Z,1008.68
2023-01-10T05:20:00.462Z,1008.68
2023-01-10T05:21:00.472Z,1008.64
2023-01-10T05:22:00.431Z,1008.73
2023-01-10T05:23:00.415Z,1008.74
2023-01-10T05:24:00.437Z,1008.81
2023-01-10T05:25:00.401Z,1008.81
2023-01-10T05:26:00.403Z,1008.87
2023-01-10T05:27:00.373Z,1008.80
2023-01-10T05:28:00.369Z,1008.82
2023-01-10T05:29:00.350Z,1008.80
2023-01-10T05:30:00.360Z,1008.88
2023-01-10T05:31:00.327Z,1008.90
2023-01-10T05:32:00.377Z,1008.92
2023-01-10T05:33:00.313Z,1008.97
2023-01-10T05:34:00.313Z,1008.98
2023-01-10T05:35:00.302Z,1008.95
2023-01-10T05:36:00.285Z,1008.94
2023-01-10T05:37:00.292Z,1008.96
2023-01-10T05:38:00.263Z,1008.93
2023-01-10T05:39:00.246Z,1008.94
2023-01-10T05:40:00.234Z,1008.96
2023-01-10T05:41:00.230Z,1009.03
2023-01-10T05:42:00.221Z,1009.03
2023-01-10T05:43:00.224Z,1009.06
2023-01-10T05:44:00.205Z,1009.13
2023-01-10T05:45:00.180Z,1009.10
2023-01-10T05:46:00.237Z,1009.18
2023-01-10T05:47:00.160Z,1009.15
2023-01-10T05:48:00.152Z,1009.21
2023-01-10T05:49:00.152Z,1009.27
2023-01-10T05:50:00.168Z,1009.23
2023-01-10T05:51:00.122Z,1009.29
2023-01-10T05:52:00.126Z,1009.26
2023-01-10T05:53:00.129Z,1009.29
2023-01-10T05:54:00.113Z,1009.29
2023-01-10T05:55:00.116Z,1009.36
2023-01-10T05:56:00.101Z,1009.34
2023-01-10T05:57:00.096Z,1009.34
2023-01-10T05:58:00.045Z,1009.40
2023-01-10T05:59:07.857Z,1009.39
2023-01-10T06:00:01.028Z,1009.45
2023-01-10T06:01:00.113Z,1009.46
2023-01-10T06:02:00.068Z,1009.47
2023-01-10T06:03:00.041Z,1009.54
2023-01-10T06:03:59.990Z,1009.55
2023-01-10T06:04:59.983Z,1009.57
2023-01-10T06:05:59.959Z,1009.59
2023-01-10T06:06:59.989Z,1009.61
2023-01-10T06:07:59.970Z,1009.62
2023-01-10T06:08:59.961Z,1009.59
2023-01-10T06:09:59.925Z,1009.67
2023-01-10T06:10:59.912Z,1009.69
2023-01-10T06:11:59.899Z,1009.67
2023-01-10T06:12:59.907Z,1009.69
2023-01-10T06:13:59.874Z,1009.72
2023-01-10T06:14:59.872Z,1009.72
2023-01-10T06:15:59.922Z,1009.76
2023-01-10T06:16:59.842Z,1009.68
2023-01-10T06:17:59.852Z,1009.76
2023-01-10T06:18:59.828Z,1009.76
2023-01-10T06:19:59.832Z,1009.86
2023-01-10T06:20:59.799Z,1009.83
2023-01-10T06:21:59.801Z,1009.82
2023-01-10T06:22:59.798Z,1009.86
2023-01-10T06:23:59.772Z,1009.90
2023-01-10T06:25:02.275Z,1009.92
2023-01-10T06:25:59.768Z,1009.92
2023-01-10T06:26:59.734Z,1010.04
2023-01-10T06:27:59.745Z,1010.05
2023-01-10T06:28:59.720Z,1010.05
2023-01-10T06:29:59.718Z,1010.06
2023-01-10T06:30:59.710Z,1010.08
2023-01-10T06:31:59.706Z,1010.14
2023-01-10T06:32:59.679Z,1010.15
2023-01-10T06:33:59.667Z,1010.11
2023-01-10T06:34:59.659Z,1010.15
2023-01-10T06:35:59.652Z,1010.15
2023-01-10T06:36:59.629Z,1010.17
2023-01-10T06:37:59.626Z,1010.24
2023-01-10T06:38:59.615Z,1010.29
2023-01-10T06:39:59.610Z,1010.29
2023-01-10T06:40:59.610Z,1010.31
2023-01-10T06:41:59.585Z,1010.35
2023-01-10T06:42:59.582Z,1010.36
2023-01-10T06:43:59.564Z,1010.38
2023-01-10T06:44:59.566Z,1010.38
2023-01-10T06:45:59.608Z,1010.43
2023-01-10T06:46:59.537Z,1010.44
2023-01-10T06:47:59.529Z,1010.46
2023-01-10T06:48:59.499Z,1010.47
2023-01-10T06:49:59.500Z,1010.53
2023-01-10T06:50:59.496Z,1010.48
2023-01-10T06:51:59.484Z,1010.52
2023-01-10T06:52:59.475Z,1010.47
2023-01-10T06:53:59.452Z,1010.50
2023-01-10T06:54:59.435Z,1010.52
2023-01-10T06:55:59.435Z,1010.49
2023-01-10T06:56:59.447Z,1010.53
2023-01-10T06:57:59.460Z,1010.59
2023-01-10T06:58:59.399Z,1010.60
2023-01-10T06:59:59.393Z,1010.61
2023-01-10T07:00:59.552Z,1010.64
2023-01-10T07:01:59.462Z,1010.63
2023-01-10T07:02:59.365Z,1010.62
2023-01-10T07:03:59.391Z,1010.59
2023-01-10T07:04:59.343Z,1010.66
2023-01-10T07:05:59.326Z,1010.72
2023-01-10T07:06:59.307Z,1010.71
2023-01-10T07:07:59.306Z,1010.77
2023-01-10T07:08:59.302Z,1010.77
2023-01-10T07:09:59.283Z,1010.78
2023-01-10T07:10:59.270Z,1010.82
2023-01-10T07:11:59.275Z,1010.80
2023-01-10T07:12:59.281Z,1010.83
2023-01-10T07:13:59.233Z,1010.89
2023-01-10T07:14:59.246Z,1010.92
2023-01-10T07:15:59.228Z,1010.94
2023-01-10T07:16:59.213Z,1010.95
2023-01-10T07:17:59.233Z,1011.01
2023-01-10T07:18:59.193Z,1011.01
2023-01-10T07:19:59.184Z,1010.92
2023-01-10T07:20:59.180Z,1010.99
2023-01-10T07:21:59.149Z,1011.01
2023-01-10T07:22:59.137Z,1010.96
2023-01-10T07:24:01.564Z,1011.05
2023-01-10T07:24:59.143Z,1011.06
2023-01-10T07:25:59.222Z,1011.13
2023-01-10T07:26:59.103Z,1011.15
2023-01-10T07:27:59.101Z,1011.21
2023-01-10T07:28:59.111Z,1011.23
2023-01-10T07:29:59.083Z,1011.22
2023-01-10T07:30:59.159Z,1011.24
2023-01-10T07:31:59.063Z,1011.16
2023-01-10T07:32:59.041Z,1011.26
2023-01-10T07:33:59.027Z,1011.32
2023-01-10T07:34:59.020Z,1011.23
2023-01-10T07:35:59.015Z,1011.27
2023-01-10T07:36:59.014Z,1011.43
2023-01-10T07:37:58.993Z,1011.46
2023-01-10T07:38:58.967Z,1011.54
2023-01-10T07:39:58.975Z,1011.41
2023-01-10T07:40:58.961Z,1011.53
2023-01-10T07:41:58.932Z,1011.60
2023-01-10T07:42:58.940Z,1011.62
2023-01-10T07:43:58.935Z,1011.63
2023-01-10T07:44:58.949Z,1011.69
2023-01-10T07:45:58.951Z,1011.67
2023-01-10T07:46:58.897Z,1011.69
2023-01-10T07:47:58.876Z,1011.65
2023-01-10T07:48:58.866Z,1011.63
2023-01-10T07:49:58.885Z,1011.66
2023-01-10T07:50:58.839Z,1011.62
2023-01-10T07:51:58.833Z,1011.70
2023-01-10T07:52:58.823Z,1011.70
2023-01-10T07:53:58.823Z,1011.70
2023-01-10T07:54:58.801Z,1011.77
2023-01-10T07:55:58.806Z,1011.67
2023-01-10T07:56:58.773Z,1011.69
2023-01-10T07:57:58.783Z,1011.75
2023-01-10T07:58:58.770Z,1011.72
2023-01-10T07:59:58.750Z,1011.74
2023-01-10T08:00:58.880Z,1011.80
2023-01-10T08:01:58.720Z,1011.76
2023-01-10T08:02:58.850Z,1011.80
2023-01-10T08:03:58.704Z,1011.85
2023-01-10T08:04:58.698Z,1011.87
2023-01-10T08:05:58.691Z,1011.88
2023-01-10T08:06:58.665Z,1011.90
2023-01-10T08:07:58.668Z,1011.90
2023-01-10T08:08:58.687Z,1011.86
2023-01-10T08:09:58.635Z,1011.87
2023-01-10T08:10:58.640Z,1011.85
2023-01-10T08:11:58.631Z,1011.83
2023-01-10T08:13:03.883Z,1011.88
2023-01-10T08:13:59.601Z,1011.93
2023-01-10T08:14:58.586Z,1011.96
2023-01-10T08:15:58.606Z,1012.05
2023-01-10T08:16:58.580Z,1012.11
2023-01-10T08:17:58.558Z,1012.18
2023-01-10T08:18:58.555Z,1012.15
2023-01-10T08:19:58.537Z,1012.09
2023-01-10T08:20:58.531Z,1012.07
2023-01-10T08:21:58.515Z,1012.14
2023-01-10T08:22:58.508Z,1012.22
2023-01-10T08:23:58.503Z,1012.19
2023-01-10T08:24:58.492Z,1012.15
2023-01-10T08:25:58.480Z,1012.18
2023-01-10T08:26:58.461Z,1012.21
2023-01-10T08:27:58.450Z,1012.20
2023-01-10T08:28:58.439Z,1012.23
2023-01-10T08:29:58.445Z,1012.24
2023-01-10T08:30:58.483Z,1012.21
2023-01-10T08:31:58.408Z,1012.25
2023-01-10T08:32:58.439Z,1012.29
2023-01-10T08:33:58.386Z,1012.24
2023-01-10T08:34:58.379Z,1012.25
2023-01-10T08:35:58.376Z,1012.22
2023-01-10T08:36:58.356Z,1012.21
2023-01-10T08:37:58.342Z,1012.21
2023-01-10T08:38:58.336Z,1012.25
2023-01-10T08:39:58.342Z,1012.26
2023-01-10T08:40:58.309Z,1012.29
2023-01-10T08:41:58.309Z,1012.37
2023-01-10T08:42:58.282Z,1012.28
2023-01-10T08:43:58.276Z,1012.36
2023-01-10T08:45:00.370Z,1012.33
2023-01-10T08:45:58.263Z,1012.35
2023-01-10T08:46:58.316Z,1012.42
2023-01-10T08:47:58.239Z,1012.39
2023-01-10T08:48:58.244Z,1012.45
2023-01-10T08:49:58.228Z,1012.46
2023-01-10T08:50:58.202Z,1012.53
2023-01-10T08:52:07.177Z,1012.63
2023-01-10T08:53:05.708Z,1012.59
2023-01-10T08:54:05.713Z,1012.54
2023-01-10T08:54:58.154Z,1012.64
2023-01-10T08:55:58.151Z,1012.51
2023-01-10T08:56:58.143Z,1012.60
2023-01-10T08:57:58.133Z,1012.65
2023-01-10T08:58:58.110Z,1012.65
2023-01-10T08:59:58.101Z,1012.63
2023-01-10T09:00:58.111Z,1012.67
2023-01-10T09:01:58.154Z,1012.67
2023-01-10T09:02:58.209Z,1012.72
2023-01-10T09:03:58.079Z,1012.64
2023-01-10T09:04:58.079Z,1012.74
2023-01-10T09:05:58.051Z,1012.76
2023-01-10T09:06:58.039Z,1012.74
2023-01-10T09:07:58.040Z,1012.77
2023-01-10T09:08:58.013Z,1012.85
2023-01-10T09:09:58.010Z,1012.81
2023-01-10T09:10:57.995Z,1012.84
2023-01-10T09:11:57.986Z,1012.88
2023-01-10T09:12:57.959Z,1012.87
2023-01-10T09:13:57.973Z,1012.94
2023-01-10T09:14:57.957Z,1012.84
2023-01-10T09:15:58.000Z,1012.88
2023-01-10T09:16:57.925Z,1012.92
2023-01-10T09:17:57.931Z,1012.89
2023-01-10T09:18:57.906Z,1012.94
2023-01-10T09:19:57.901Z,1012.97
2023-01-10T09:20:57.899Z,1012.90
2023-01-10T09:21:57.897Z,1012.87
2023-01-10T09:22:57.853Z,1012.90
2023-01-10T09:23:57.843Z,1012.85
2023-01-10T09:24:57.832Z,1012.90
2023-01-10T09:25:57.880Z,1012.80
2023-01-10T09:26:57.854Z,1012.94
2023-01-10T09:27:57.828Z,1012.93
2023-01-10T09:28:57.788Z,1012.97
2023-01-10T09:29:57.785Z,1012.99
2023-01-10T09:30:57.767Z,1013.04
2023-01-10T09:31:57.759Z,1013.05
2023-01-10T09:32:57.781Z,1013.08
2023-01-10T09:33:57.753Z,1013.13
2023-01-10T09:34:57.737Z,1013.05
2023-01-10T09:35:57.713Z,1013.11
2023-01-10T09:36:57.741Z,1013.06
2023-01-10T09:37:57.705Z,1013.15
2023-01-10T09:38:57.691Z,1013.07
2023-01-10T09:39:57.685Z,1013.16
2023-01-10T09:40:57.676Z,1013.14
2023-01-10T09:41:57.670Z,1013.07
2023-01-10T09:42:57.641Z,1013.09
2023-01-10T09:43:59.820Z,1013.11
2023-01-10T09:44:57.615Z,1013.06
2023-01-10T09:45:57.625Z,1013.10
2023-01-10T09:46:57.679Z,1013.16
2023-01-10T09:47:57.586Z,1013.14
2023-01-10T09:48:57.608Z,1013.10
2023-01-10T09:49:57.567Z,1013.15
2023-01-10T09:50:57.562Z,1013.12
2023-01-10T09:51:59.108Z,1013.08
2023-01-10T09:52:57.558Z,1013.13
2023-01-10T09:54:10.104Z,1013.09
2023-01-10T09:54:58.536Z,1013.03
2023-01-10T09:55:57.502Z,1013.11
2023-01-10T09:56:57.496Z,1013.02
2023-01-10T09:57:57.496Z,1013.08
2023-01-10T09:58:57.476Z,1013.01
2023-01-10T09:59:57.476Z,1012.97
2023-01-10T10:00:57.551Z,1012.98
2023-01-10T10:01:57.442Z,1013.00
2023-01-10T10:02:57.444Z,1013.03
2023-01-10T10:03:57.483Z,1013.08
2023-01-10T10:04:57.419Z,1013.07
2023-01-10T10:06:10.559Z,1013.08
2023-01-10T10:06:58.397Z,1013.08
2023-01-10T10:07:57.382Z,1013.15
2023-01-10T10:08:57.408Z,1013.14
2023-01-10T10:09:57.366Z,1013.15
2023-01-10T10:10:57.354Z,1013.09
2023-01-10T10:11:57.337Z,1013.08
2023-01-10T10:12:57.320Z,1013.11
2023-01-10T10:13:57.319Z,1013.13
2023-01-10T10:14:57.327Z,1013.03
2023-01-10T10:15:59.805Z,1013.08
2023-01-10T10:16:57.305Z,1013.10
2023-01-10T10:17:57.275Z,1013.07
2023-01-10T10:18:57.266Z,1013.05
2023-01-10T10:19:57.251Z,1013.12
2023-01-10T10:20:57.251Z,1013.15
2023-01-10T10:21:57.243Z,1013.13
2023-01-10T10:22:57.226Z,1013.21
2023-01-10T10:23:57.218Z,1013.16
2023-01-10T10:24:57.211Z,1013.17
2023-01-10T10:25:57.182Z,1013.25
2023-01-10T10:26:57.188Z,1013.22
2023-01-10T10:27:57.191Z,1013.17
2023-01-10T10:28:57.160Z,1013.23
2023-01-10T10:29:57.154Z,1013.19
2023-01-10T10:30:57.135Z,1013.17
2023-01-10T10:31:57.118Z,1013.21
2023-01-10T10:32:57.128Z,1013.23
2023-01-10T10:33:57.111Z,1013.25
2023-01-10T10:34:57.087Z,1013.20
2023-01-10T10:35:57.125Z,1013.17
2023-01-10T10:36:57.079Z,1013.19
2023-01-10T10:37:57.066Z,1013.24
2023-01-10T10:38:57.044Z,1013.28
2023-01-10T10:39:57.044Z,1013.25
2023-01-10T10:40:57.049Z,1013.23
2023-01-10T10:41:57.035Z,1013.24
2023-01-10T10:42:57.020Z,1013.29
2023-01-10T10:43:56.999Z,1013.35
2023-01-10T10:44:56.997Z,1013.32
2023-01-10T10:45:57.134Z,1013.42
2023-01-10T10:46:56.954Z,1013.47
2023-01-10T10:47:56.990Z,1013.47
2023-01-10T10:48:56.956Z,1013.51
2023-01-10T10:49:56.939Z,1013.53
2023-01-10T10:50:56.928Z,1013.46
2023-01-10T10:51:56.912Z,1013.58
2023-01-10T10:52:56.895Z,1013.52
2023-01-10T10:53:56.885Z,1013.57
2023-01-10T10:54:56.905Z,1013.54
2023-01-10T10:55:56.877Z,1013.49
2023-01-10T10:56:56.888Z,1013.47
2023-01-10T10:58:00.357Z,1013.44
2023-01-10T10:58:56.827Z,1013.48
2023-01-10T10:59:56.827Z,1013.43
2023-01-10T11:00:56.938Z,1013.43
2023-01-10T11:01:57.038Z,1013.38
2023-01-10T11:02:56.807Z,1013.37
2023-01-10T11:03:56.774Z,1013.28
2023-01-10T11:04:56.860Z,1013.33
2023-01-10T11:05:56.758Z,1013.18
2023-01-10T11:06:56.753Z,1013.25
2023-01-10T11:07:56.765Z,1013.27
2023-01-10T11:08:56.746Z,1013.26
2023-01-10T11:09:56.717Z,1013.29
2023-01-10T11:10:56.718Z,1013.37
2023-01-10T11:11:56.720Z,1013.27
2023-01-10T11:12:56.795Z,1013.37
2023-01-10T11:13:56.672Z,1013.36
2023-01-10T11:14:56.689Z,1013.37
2023-01-10T11:15:56.656Z,1013.44
2023-01-10T11:16:56.640Z,1013.39
2023-01-10T11:17:56.642Z,1013.40
2023-01-10T11:18:56.622Z,1013.34
2023-01-10T11:19:56.613Z,1013.29
2023-01-10T11:20:56.607Z,1013.31
2023-01-10T11:21:56.588Z,1013.37
2023-01-10T11:22:56.589Z,1013.29
2023-01-10T11:23:56.567Z,1013.31
2023-01-10T11:24:56.561Z,1013.30
2023-01-10T11:25:56.548Z,1013.33
2023-01-10T11:26:56.537Z,1013.34
2023-01-10T11:27:56.539Z,1013.36
2023-01-10T11:28:56.548Z,1013.43
2023-01-10T11:29:56.504Z,1013.40
2023-01-10T11:30:56.489Z,1013.51
2023-01-10T11:31:56.612Z,1013.51
2023-01-10T11:32:56.487Z,1013.49
2023-01-10T11:33:56.468Z,1013.45
2023-01-10T11:34:56.474Z,1013.44
2023-01-10T11:35:56.445Z,1013.50
2023-01-10T11:36:56.433Z,1013.44
2023-01-10T11:37:56.420Z,1013.51
2023-01-10T11:38:56.429Z,1013.54
2023-01-10T11:39:56.389Z,1013.56
2023-01-10T11:40:56.393Z,1013.66
2023-01-10T11:41:56.379Z,1013.60
2023-01-10T11:42:59.024Z,1013.60
2023-01-10T11:43:56.363Z,1013.62
2023-01-10T11:44:56.365Z,1013.68
2023-01-10T11:45:56.414Z,1013.73
2023-01-10T11:46:56.339Z,1013.70
2023-01-10T11:47:56.317Z,1013.72
2023-01-10T11:49:05.409Z,1013.75
2023-01-10T11:49:57.310Z,1013.75
2023-01-10T11:50:56.295Z,1013.61
2023-01-10T11:51:56.277Z,1013.71
2023-01-10T11:52:56.282Z,1013.69
2023-01-10T11:53:56.257Z,1013.67
2023-01-10T11:54:58.403Z,1013.71
2023-01-10T11:55:56.224Z,1013.73
2023-01-10T11:56:56.223Z,1013.78
2023-01-10T11:57:56.225Z,1013.79
2023-01-10T11:58:56.211Z,1013.77
2023-01-10T11:59:56.193Z,1013.76
2023-01-10T12:00:58.749Z,1013.73
2023-01-10T12:01:56.288Z,1013.67
2023-01-10T12:02:56.148Z,1013.73
2023-01-10T12:03:56.163Z,1013.66
2023-01-10T12:04:56.224Z,1013.74